createdAt,value
2022-10-02T00:00:33.218Z,6.30
2022-10-02T00:01:33.213Z,10.60
2022-10-02T00:02:33.181Z,4.40
2022-10-02T00:03:33.200Z,3.10
2022-10-02T00:04:33.234Z,7.30
2022-10-02T00:05:33.259Z,8.10
2022-10-02T00:06:33.416Z,8.20
2022-10-02T00:07:33.099Z,3.30
2022-10-02T00:08:33.098Z,2.80
2022-10-02T00:09:33.068Z,4.40
2022-10-02T00:10:33.109Z,2.60
2022-10-02T00:11:33.061Z,4.30
2022-10-02T00:12:33.038Z,3.80
2022-10-02T00:13:33.006Z,5.50
2022-10-02T00:14:33.007Z,1.90
2022-10-02T00:15:33.017Z,6.00
2022-10-02T00:16:33.403Z,6.30
2022-10-02T00:17:32.982Z,6.30
2022-10-02T00:18:32.952Z,3.10
2022-10-02T00:19:32.986Z,6.50
2022-10-02T00:20:32.980Z,4.30
2022-10-02T00:21:32.956Z,10.10
2022-10-02T00:22:32.906Z,3.70
2022-10-02T00:23:32.877Z,7.40
2022-10-02T00:24:32.867Z,4.40
2022-10-02T00:25:32.894Z,4.40
2022-10-02T00:26:33.246Z,8.10
2022-10-02T00:27:33.037Z,4.30
2022-10-02T00:28:32.932Z,3.30
2022-10-02T00:29:32.833Z,5.80
2022-10-02T00:30:32.848Z,8.60
2022-10-02T00:31:32.877Z,6.00
2022-10-02T00:32:32.785Z,13.70
2022-10-02T00:33:32.906Z,10.70
2022-10-02T00:34:32.908Z,7.00
2022-10-02T00:35:37.269Z,10.90
2022-10-02T00:36:32.887Z,10.30
2022-10-02T00:37:32.705Z,10.80
2022-10-02T00:38:32.695Z,15.20
2022-10-02T00:39:32.677Z,7.80
2022-10-02T00:40:32.710Z,12.80
2022-10-02T00:41:32.662Z,15.50
2022-10-02T00:42:32.635Z,14.60
2022-10-02T00:43:32.639Z,7.80
2022-10-02T00:44:32.607Z,11.80
2022-10-02T00:45:32.696Z,19.40
2022-10-02T00:46:32.717Z,2.60
2022-10-02T00:47:32.581Z,5.00
2022-10-02T00:48:32.555Z,6.10
2022-10-02T00:49:32.815Z,6.40
2022-10-02T00:50:32.567Z,14.70
2022-10-02T00:51:32.518Z,10.80
2022-10-02T00:52:32.517Z,17.10
2022-10-02T00:53:32.484Z,9.90
2022-10-02T00:54:32.475Z,6.80
2022-10-02T00:55:32.495Z,2.40
2022-10-02T00:56:32.548Z,4.40
2022-10-02T00:57:32.454Z,4.20
2022-10-02T00:58:32.426Z,4.00
2022-10-02T00:59:32.418Z,8.90
2022-10-02T01:00:32.434Z,5.70
2022-10-02T01:01:32.386Z,4.60
2022-10-02T01:02:32.394Z,8.30
2022-10-02T01:03:32.363Z,12.20
2022-10-02T01:04:32.362Z,1.80
2022-10-02T01:05:32.364Z,7.30
2022-10-02T01:06:32.405Z,4.50
2022-10-02T01:07:32.319Z,19.50
2022-10-02T01:08:32.314Z,12.80
2022-10-02T01:09:32.306Z,11.40
2022-10-02T01:10:32.691Z,9.90
2022-10-02T01:11:32.254Z,17.60
2022-10-02T01:12:32.243Z,10.50
2022-10-02T01:13:32.225Z,5.10
2022-10-02T01:14:32.231Z,13.60
2022-10-02T01:15:32.235Z,16.70
2022-10-02T01:16:32.255Z,9.40
2022-10-02T01:17:32.187Z,13.40
2022-10-02T01:18:32.176Z,6.90
2022-10-02T01:19:32.155Z,11.90
2022-10-02T01:20:32.173Z,8.40
2022-10-02T01:21:32.124Z,6.50
2022-10-02T01:22:32.113Z,14.00
2022-10-02T01:23:33.964Z,20.90
2022-10-02T01:24:32.396Z,4.10
2022-10-02T01:25:36.165Z,5.80
2022-10-02T01:26:32.113Z,17.50
2022-10-02T01:27:34.522Z,13.50
2022-10-02T01:28:33.043Z,5.00
2022-10-02T01:29:32.035Z,10.60
2022-10-02T01:30:32.023Z,12.80
2022-10-02T01:31:32.137Z,7.50
2022-10-02T01:32:31.983Z,9.00
2022-10-02T01:33:31.963Z,8.20
2022-10-02T01:34:32.049Z,8.60
2022-10-02T01:35:31.967Z,12.70
2022-10-02T01:36:31.972Z,18.20
2022-10-02T01:37:31.925Z,9.20
2022-10-02T01:38:31.938Z,16.90
2022-10-02T01:39:31.884Z,12.60
2022-10-02T01:40:31.883Z,7.00
2022-10-02T01:41:31.903Z,13.60
2022-10-02T01:42:31.854Z,13.20
2022-10-02T01:43:31.836Z,11.80
2022-10-02T01:44:31.831Z,10.20
2022-10-02T01:45:31.875Z,11.80
2022-10-02T01:46:31.834Z,7.90
2022-10-02T01:47:31.802Z,19.80
2022-10-02T01:48:31.773Z,16.30
2022-10-02T01:49:31.771Z,14.00
2022-10-02T01:50:31.753Z,14.40
2022-10-02T01:51:31.776Z,9.20
2022-10-02T01:52:31.723Z,10.60
2022-10-02T01:53:31.710Z,7.20
2022-10-02T01:54:31.694Z,13.90
2022-10-02T01:55:31.696Z,20.50
2022-10-02T01:56:31.722Z,9.00
2022-10-02T01:57:31.672Z,10.70
2022-10-02T01:58:31.642Z,15.70
2022-10-02T01:59:31.635Z,15.60
2022-10-02T02:00:31.622Z,19.60
2022-10-02T02:01:31.724Z,4.20
2022-10-02T02:02:31.633Z,6.50
2022-10-02T02:03:31.574Z,9.70
2022-10-02T02:04:31.562Z,8.20
2022-10-02T02:05:31.611Z,21.70
2022-10-02T02:06:31.539Z,5.70
2022-10-02T02:07:31.535Z,6.50
2022-10-02T02:08:31.520Z,14.50
2022-10-02T02:09:31.512Z,14.90
2022-10-02T02:10:31.483Z,5.60
2022-10-02T02:11:31.511Z,18.20
2022-10-02T02:12:31.463Z,14.20
2022-10-02T02:13:31.453Z,10.70
2022-10-02T02:14:31.433Z,14.80
2022-10-02T02:15:31.431Z,20.80
2022-10-02T02:16:31.522Z,18.50
2022-10-02T02:17:31.412Z,9.70
2022-10-02T02:18:31.395Z,5.10
2022-10-02T02:19:31.382Z,10.90
2022-10-02T02:20:31.352Z,10.00
2022-10-02T02:21:31.380Z,10.70
2022-10-02T02:22:31.341Z,13.60
2022-10-02T02:23:31.320Z,8.00
2022-10-02T02:24:31.307Z,8.80
2022-10-02T02:25:31.292Z,10.40
2022-10-02T02:26:31.311Z,13.10
2022-10-02T02:27:31.282Z,10.50
2022-10-02T02:28:31.318Z,8.50
2022-10-02T02:29:32.184Z,11.10
2022-10-02T02:30:31.221Z,14.60
2022-10-02T02:31:31.299Z,14.90
2022-10-02T02:32:31.200Z,25.60
2022-10-02T02:33:31.196Z,26.30
2022-10-02T02:34:31.181Z,14.10
2022-10-02T02:35:31.181Z,13.90
2022-10-02T02:36:31.179Z,15.10
2022-10-02T02:37:31.152Z,11.90
2022-10-02T02:38:31.136Z,26.80
2022-10-02T02:39:31.110Z,17.60
2022-10-02T02:40:31.112Z,13.60
2022-10-02T02:41:31.126Z,11.70
2022-10-02T02:42:31.070Z,10.00
2022-10-02T02:43:31.070Z,12.00
2022-10-02T02:44:31.059Z,24.50
2022-10-02T02:45:31.084Z,12.40
2022-10-02T02:46:31.048Z,22.20
2022-10-02T02:47:31.032Z,12.90
2022-10-02T02:48:30.991Z,20.20
2022-10-02T02:49:30.991Z,16.80
2022-10-02T02:50:30.963Z,19.30
2022-10-02T02:51:30.980Z,22.50
2022-10-02T02:52:30.940Z,19.80
2022-10-02T02:53:30.943Z,9.70
2022-10-02T02:54:30.911Z,17.80
2022-10-02T02:55:31.131Z,15.00
2022-10-02T02:56:30.911Z,12.00
2022-10-02T02:57:30.900Z,16.50
2022-10-02T02:58:30.876Z,15.10
2022-10-02T02:59:30.850Z,7.50
2022-10-02T03:00:30.864Z,20.10
2022-10-02T03:01:30.904Z,25.10
2022-10-02T03:02:30.834Z,19.10
2022-10-02T03:03:30.801Z,10.50
2022-10-02T03:04:30.785Z,13.00
2022-10-02T03:05:30.802Z,12.90
2022-10-02T03:06:30.793Z,15.10
2022-10-02T03:07:30.758Z,11.90
2022-10-02T03:08:30.806Z,16.40
2022-10-02T03:09:30.732Z,11.50
2022-10-02T03:10:30.712Z,10.40
2022-10-02T03:11:31.483Z,15.60
2022-10-02T03:12:30.696Z,18.00
2022-10-02T03:13:30.671Z,14.30
2022-10-02T03:14:30.654Z,12.60
2022-10-02T03:15:30.690Z,10.40
2022-10-02T03:16:30.652Z,6.20
2022-10-02T03:17:30.640Z,9.90
2022-10-02T03:18:30.602Z,11.00
2022-10-02T03:19:30.598Z,15.20
2022-10-02T03:20:30.577Z,8.60
2022-10-02T03:21:30.601Z,15.60
2022-10-02T03:22:30.551Z,17.50
2022-10-02T03:23:30.554Z,10.60
2022-10-02T03:24:30.568Z,17.90
2022-10-02T03:25:30.510Z,14.40
2022-10-02T03:26:30.811Z,11.00
2022-10-02T03:27:34.807Z,15.50
2022-10-02T03:28:53.846Z,18.10
2022-10-02T03:29:31.461Z,9.90
2022-10-02T03:30:30.451Z,15.30
2022-10-02T03:31:30.521Z,9.50
2022-10-02T03:32:30.422Z,14.00
2022-10-02T03:33:30.411Z,18.80
2022-10-02T03:34:30.392Z,14.20
2022-10-02T03:35:30.379Z,11.90
2022-10-02T03:36:30.408Z,17.00
2022-10-02T03:37:30.390Z,8.40
2022-10-02T03:38:30.550Z,15.40
2022-10-02T03:39:30.329Z,15.70
2022-10-02T03:40:30.313Z,15.50
2022-10-02T03:41:30.348Z,12.70
2022-10-02T03:42:30.300Z,11.90
2022-10-02T03:43:30.288Z,10.10
2022-10-02T03:44:30.468Z,15.70
2022-10-02T03:45:50.499Z,17.50
2022-10-02T03:46:31.316Z,12.60
2022-10-02T03:47:30.644Z,14.60
2022-10-02T03:48:30.211Z,27.50
2022-10-02T03:49:30.221Z,15.70
2022-10-02T03:50:35.465Z,13.10
2022-10-02T03:51:31.297Z,11.20
2022-10-02T03:52:31.038Z,14.80
2022-10-02T03:53:30.739Z,13.10
2022-10-02T03:54:30.129Z,18.80
2022-10-02T03:55:30.159Z,10.10
2022-10-02T03:56:30.237Z,6.70
2022-10-02T03:57:30.100Z,11.60
2022-10-02T03:58:30.081Z,13.30
2022-10-02T03:59:30.086Z,11.30
2022-10-02T04:00:30.052Z,25.10
2022-10-02T04:01:30.103Z,12.00
2022-10-02T04:02:30.031Z,12.20
2022-10-02T04:03:30.073Z,14.50
2022-10-02T04:04:30.012Z,15.10
2022-10-02T04:05:30.001Z,13.00
2022-10-02T04:06:30.011Z,16.50
2022-10-02T04:07:29.982Z,10.30
2022-10-02T04:08:29.956Z,9.70
2022-10-02T04:09:30.296Z,11.40
2022-10-02T04:10:29.919Z,17.60
2022-10-02T04:11:29.985Z,14.30
2022-10-02T04:12:29.919Z,19.80
2022-10-02T04:13:29.934Z,14.40
2022-10-02T04:14:29.884Z,10.40
2022-10-02T04:15:29.899Z,13.50
2022-10-02T04:16:29.894Z,12.60
2022-10-02T04:17:29.840Z,11.90
2022-10-02T04:18:29.820Z,14.50
2022-10-02T04:19:29.825Z,15.30
2022-10-02T04:20:29.833Z,16.40
2022-10-02T04:21:29.961Z,27.70
2022-10-02T04:22:30.780Z,9.60
2022-10-02T04:23:29.809Z,17.80
2022-10-02T04:24:29.749Z,13.20
2022-10-02T04:25:29.786Z,19.00
2022-10-02T04:26:29.727Z,11.00
2022-10-02T04:27:29.720Z,17.00
2022-10-02T04:28:29.727Z,11.90
2022-10-02T04:29:29.689Z,12.30
2022-10-02T04:30:29.701Z,6.90
2022-10-02T04:31:29.760Z,22.50
2022-10-02T04:32:29.642Z,14.20
2022-10-02T04:33:34.166Z,21.00
2022-10-02T04:34:34.682Z,14.10
2022-10-02T04:35:31.524Z,14.00
2022-10-02T04:36:30.284Z,16.90
2022-10-02T04:37:29.584Z,23.30
2022-10-02T04:38:29.775Z,12.60
2022-10-02T04:39:29.851Z,10.10
2022-10-02T04:40:29.910Z,15.10
2022-10-02T04:41:29.535Z,19.90
2022-10-02T04:42:29.516Z,18.70
2022-10-02T04:43:29.520Z,11.30
2022-10-02T04:44:29.502Z,17.10
2022-10-02T04:45:29.541Z,14.20
2022-10-02T04:46:29.460Z,19.20
2022-10-02T04:47:29.466Z,17.00
2022-10-02T04:48:29.442Z,11.20
2022-10-02T04:49:29.430Z,10.00
2022-10-02T04:50:29.450Z,16.20
2022-10-02T04:51:29.389Z,12.00
2022-10-02T04:52:29.386Z,15.30
2022-10-02T04:53:29.370Z,11.60
2022-10-02T04:54:29.349Z,13.20
2022-10-02T04:55:29.321Z,15.20
2022-10-02T04:56:29.329Z,13.40
2022-10-02T04:57:29.329Z,16.60
2022-10-02T04:58:29.318Z,18.40
2022-10-02T04:59:29.310Z,16.90
2022-10-02T05:00:29.341Z,13.70
2022-10-02T05:01:29.269Z,18.00
2022-10-02T05:02:29.316Z,17.60
2022-10-02T05:03:29.204Z,14.30
2022-10-02T05:04:29.169Z,17.60
2022-10-02T05:05:29.239Z,10.10
2022-10-02T05:06:29.215Z,22.20
2022-10-02T05:07:29.169Z,15.40
2022-10-02T05:08:29.128Z,15.60
2022-10-02T05:09:29.113Z,9.20
2022-10-02T05:10:29.131Z,21.40
2022-10-02T05:11:29.090Z,12.80
2022-10-02T05:12:29.072Z,11.80
2022-10-02T05:13:29.061Z,20.90
2022-10-02T05:14:29.038Z,13.60
2022-10-02T05:15:29.054Z,16.10
2022-10-02T05:16:30.579Z,14.00
2022-10-02T05:17:32.612Z,23.60
2022-10-02T05:18:29.209Z,7.20
2022-10-02T05:19:28.989Z,10.50
2022-10-02T05:20:29.209Z,15.50
2022-10-02T05:21:29.378Z,7.00
2022-10-02T05:22:30.510Z,14.30
2022-10-02T05:23:29.168Z,13.90
2022-10-02T05:24:29.209Z,15.20
2022-10-02T05:25:29.610Z,8.10
2022-10-02T05:26:36.100Z,15.40
2022-10-02T05:27:29.788Z,13.20
2022-10-02T05:28:29.170Z,12.80
2022-10-02T05:29:29.708Z,15.40
2022-10-02T05:30:30.415Z,13.90
2022-10-02T05:31:29.221Z,14.60
2022-10-02T05:32:29.390Z,13.80
2022-10-02T05:33:28.797Z,15.90
2022-10-02T05:34:28.786Z,18.40
2022-10-02T05:35:28.788Z,20.00
2022-10-02T05:36:29.177Z,15.10
2022-10-02T05:37:29.159Z,22.20
2022-10-02T05:38:28.738Z,14.20
2022-10-02T05:39:28.728Z,11.50
2022-10-02T05:40:28.712Z,14.20
2022-10-02T05:41:28.729Z,11.40
2022-10-02T05:42:28.677Z,17.00
2022-10-02T05:43:28.668Z,17.90
2022-10-02T05:44:28.678Z,14.50
2022-10-02T05:45:28.664Z,16.60
2022-10-02T05:46:28.757Z,18.40
2022-10-02T05:47:28.618Z,15.50
2022-10-02T05:48:28.600Z,17.90
2022-10-02T05:49:28.589Z,15.40
2022-10-02T05:50:30.308Z,13.70
2022-10-02T05:51:32.931Z,11.20
2022-10-02T05:52:28.547Z,18.30
2022-10-02T05:53:28.699Z,17.90
2022-10-02T05:54:28.542Z,14.70
2022-10-02T05:55:28.559Z,17.30
2022-10-02T05:56:28.843Z,14.70
2022-10-02T05:57:28.698Z,13.00
2022-10-02T05:58:28.509Z,19.70
2022-10-02T05:59:28.799Z,14.70
2022-10-02T06:00:28.791Z,16.60
2022-10-02T06:01:29.244Z,18.20
2022-10-02T06:02:29.323Z,19.60
2022-10-02T06:03:28.408Z,22.50
2022-10-02T06:04:28.598Z,22.40
2022-10-02T06:05:28.716Z,14.70
2022-10-02T06:06:28.417Z,23.60
2022-10-02T06:07:28.377Z,28.60
2022-10-02T06:08:28.358Z,16.20
2022-10-02T06:09:28.337Z,16.80
2022-10-02T06:10:28.308Z,22.40
2022-10-02T06:11:28.696Z,16.20
2022-10-02T06:12:28.289Z,13.80
2022-10-02T06:13:28.275Z,22.80
2022-10-02T06:14:28.258Z,17.40
2022-10-02T06:15:28.247Z,33.90
2022-10-02T06:16:28.297Z,18.40
2022-10-02T06:17:28.238Z,16.60
2022-10-02T06:18:28.206Z,17.90
2022-10-02T06:19:28.198Z,33.40
2022-10-02T06:20:28.176Z,19.70
2022-10-02T06:21:28.207Z,17.90
2022-10-02T06:22:28.160Z,16.30
2022-10-02T06:23:28.164Z,17.50
2022-10-02T06:24:28.128Z,24.10
2022-10-02T06:25:28.118Z,17.50
2022-10-02T06:26:28.127Z,14.00
2022-10-02T06:27:28.097Z,16.70
2022-10-02T06:28:28.189Z,14.40
2022-10-02T06:29:28.086Z,21.30
2022-10-02T06:30:28.075Z,23.80
2022-10-02T06:31:28.123Z,17.30
2022-10-02T06:32:28.036Z,22.70
2022-10-02T06:33:28.018Z,21.10
2022-10-02T06:34:28.004Z,29.00
2022-10-02T06:35:27.991Z,20.90
2022-10-02T06:36:28.002Z,21.20
2022-10-02T06:37:27.967Z,19.90
2022-10-02T06:38:27.957Z,18.20
2022-10-02T06:39:27.934Z,14.60
2022-10-02T06:40:27.927Z,17.40
2022-10-02T06:41:27.929Z,23.90
2022-10-02T06:42:27.897Z,18.20
2022-10-02T06:43:27.880Z,22.50
2022-10-02T06:44:27.868Z,12.40
2022-10-02T06:45:27.899Z,20.10
2022-10-02T06:46:27.944Z,19.70
2022-10-02T06:47:27.831Z,19.60
2022-10-02T06:48:27.817Z,16.40
2022-10-02T06:49:27.797Z,26.50
2022-10-02T06:50:27.803Z,18.10
2022-10-02T06:51:27.805Z,18.30
2022-10-02T06:52:27.775Z,20.00
2022-10-02T06:53:27.812Z,13.90
2022-10-02T06:54:27.761Z,17.10
2022-10-02T06:55:27.717Z,26.90
2022-10-02T06:56:27.747Z,17.40
2022-10-02T06:57:27.723Z,19.50
2022-10-02T06:58:27.705Z,17.10
2022-10-02T06:59:27.677Z,14.20
2022-10-02T07:00:27.667Z,15.80
2022-10-02T07:01:27.958Z,17.90
2022-10-02T07:02:27.681Z,12.80
2022-10-02T07:03:27.696Z,15.20
2022-10-02T07:04:27.607Z,17.90
2022-10-02T07:05:27.600Z,17.20
2022-10-02T07:06:27.608Z,16.40
2022-10-02T07:07:27.567Z,21.30
2022-10-02T07:08:27.576Z,16.30
2022-10-02T07:09:27.539Z,15.30
2022-10-02T07:10:27.527Z,21.60
2022-10-02T07:11:27.537Z,18.50
2022-10-02T07:12:27.507Z,17.90
2022-10-02T07:13:27.487Z,27.90
2022-10-02T07:14:27.484Z,18.60
2022-10-02T07:15:27.467Z,25.00
2022-10-02T07:16:28.203Z,16.00
2022-10-02T07:17:27.439Z,21.30
2022-10-02T07:18:27.436Z,15.10
2022-10-02T07:19:27.408Z,19.20
2022-10-02T07:20:27.405Z,16.00
2022-10-02T07:21:27.407Z,18.90
2022-10-02T07:22:43.845Z,17.30
2022-10-02T07:23:28.367Z,17.90
2022-10-02T07:24:27.359Z,23.20
2022-10-02T07:25:27.328Z,21.00
2022-10-02T07:26:27.365Z,17.60
2022-10-02T07:27:27.364Z,21.20
2022-10-02T07:28:27.395Z,22.30
2022-10-02T07:29:27.287Z,22.60
2022-10-02T07:30:27.267Z,18.80
2022-10-02T07:31:27.342Z,21.70
2022-10-02T07:32:27.249Z,20.40
2022-10-02T07:33:30.043Z,15.20
2022-10-02T07:34:27.247Z,19.10
2022-10-02T07:35:27.206Z,18.60
2022-10-02T07:36:27.234Z,15.50
2022-10-02T07:37:27.207Z,14.20
2022-10-02T07:38:27.175Z,20.80
2022-10-02T07:39:27.151Z,18.60
2022-10-02T07:40:27.137Z,20.40
2022-10-02T07:41:27.177Z,17.90
2022-10-02T07:42:27.126Z,20.90
2022-10-02T07:43:27.111Z,25.70
2022-10-02T07:44:27.104Z,21.30
2022-10-02T07:45:27.093Z,15.10
2022-10-02T07:46:27.098Z,23.40
2022-10-02T07:47:27.065Z,26.40
2022-10-02T07:48:27.045Z,19.20
2022-10-02T07:49:27.077Z,14.70
2022-10-02T07:50:27.009Z,14.80
2022-10-02T07:51:27.040Z,15.70
2022-10-02T07:52:26.983Z,18.60
2022-10-02T07:53:26.958Z,18.00
2022-10-02T07:54:26.977Z,15.10
2022-10-02T07:55:26.939Z,21.70
2022-10-02T07:56:26.958Z,17.20
2022-10-02T07:57:27.002Z,16.20
2022-10-02T07:58:26.911Z,18.70
2022-10-02T07:59:26.908Z,17.40
2022-10-02T08:00:26.881Z,18.30
2022-10-02T08:01:26.892Z,23.10
2022-10-02T08:02:27.041Z,18.90
2022-10-02T08:03:26.900Z,17.50
2022-10-02T08:04:26.853Z,14.40
2022-10-02T08:05:26.807Z,19.90
2022-10-02T08:06:26.845Z,14.80
2022-10-02T08:07:26.796Z,17.70
2022-10-02T08:08:26.785Z,13.30
2022-10-02T08:09:26.767Z,16.00
2022-10-02T08:10:26.758Z,16.10
2022-10-02T08:11:26.849Z,14.70
2022-10-02T08:12:26.729Z,13.60
2022-10-02T08:13:26.708Z,13.30
2022-10-02T08:14:26.700Z,13.70
2022-10-02T08:15:26.688Z,11.20
2022-10-02T08:16:26.744Z,16.60
2022-10-02T08:17:26.657Z,17.80
2022-10-02T08:18:35.373Z,13.10
2022-10-02T08:19:27.617Z,10.40
2022-10-02T08:20:29.424Z,10.20
2022-10-02T08:21:30.921Z,13.50
2022-10-02T08:22:26.599Z,13.90
2022-10-02T08:23:26.577Z,13.10
2022-10-02T08:24:26.567Z,13.30
2022-10-02T08:25:26.552Z,15.40
2022-10-02T08:26:26.567Z,10.90
2022-10-02T08:27:26.547Z,14.40
2022-10-02T08:28:26.528Z,15.20
2022-10-02T08:29:26.518Z,10.20
2022-10-02T08:30:26.576Z,18.10
2022-10-02T08:31:26.613Z,17.50
2022-10-02T08:32:27.249Z,9.00
2022-10-02T08:33:26.468Z,11.70
2022-10-02T08:34:26.439Z,15.20
2022-10-02T08:35:26.538Z,14.70
2022-10-02T08:36:26.428Z,16.30
2022-10-02T08:37:26.394Z,11.60
2022-10-02T08:38:26.381Z,15.90
2022-10-02T08:39:26.438Z,22.20
2022-10-02T08:40:26.378Z,9.60
2022-10-02T08:41:26.396Z,17.10
2022-10-02T08:42:26.329Z,12.80
2022-10-02T08:43:26.376Z,12.20
2022-10-02T08:44:26.298Z,16.30
2022-10-02T08:45:26.577Z,13.90
2022-10-02T08:46:27.022Z,13.90
2022-10-02T08:47:26.287Z,16.70
2022-10-02T08:48:26.778Z,11.60
2022-10-02T08:49:26.288Z,21.50
2022-10-02T08:50:26.301Z,9.80
2022-10-02T08:51:26.237Z,16.90
2022-10-02T08:52:26.218Z,13.70
2022-10-02T08:53:26.198Z,16.10
2022-10-02T08:54:26.237Z,8.00
2022-10-02T08:55:26.168Z,15.70
2022-10-02T08:56:26.158Z,17.10
2022-10-02T08:57:26.170Z,13.60
2022-10-02T08:58:26.120Z,14.30
2022-10-02T08:59:26.116Z,11.60
2022-10-02T09:00:26.118Z,13.70
2022-10-02T09:01:26.225Z,16.20
2022-10-02T09:02:26.238Z,13.10
2022-10-02T09:03:26.047Z,13.80
2022-10-02T09:04:26.042Z,13.90
2022-10-02T09:05:26.206Z,13.70
2022-10-02T09:06:26.009Z,10.20
2022-10-02T09:07:28.215Z,15.40
2022-10-02T09:08:25.978Z,13.10
2022-10-02T09:09:25.968Z,10.80
2022-10-02T09:10:25.958Z,17.50
2022-10-02T09:11:25.939Z,11.40
2022-10-02T09:12:25.969Z,13.00
2022-10-02T09:13:25.921Z,14.90
2022-10-02T09:14:25.909Z,8.80
2022-10-02T09:15:25.899Z,12.60
2022-10-02T09:16:25.918Z,13.80
2022-10-02T09:17:25.898Z,19.00
2022-10-02T09:18:25.851Z,9.20
2022-10-02T09:19:25.866Z,9.60
2022-10-02T09:20:25.830Z,14.70
2022-10-02T09:21:25.820Z,16.20
2022-10-02T09:22:25.950Z,10.00
2022-10-02T09:23:25.778Z,9.70
2022-10-02T09:24:25.779Z,8.00
2022-10-02T09:25:25.750Z,11.00
2022-10-02T09:26:25.738Z,12.80
2022-10-02T09:27:25.850Z,9.90
2022-10-02T09:28:25.823Z,11.10
2022-10-02T09:29:25.709Z,9.30
2022-10-02T09:30:25.709Z,12.00
2022-10-02T09:31:25.693Z,6.70
2022-10-02T09:32:25.702Z,10.00
2022-10-02T09:33:25.678Z,12.20
2022-10-02T09:34:25.858Z,15.80
2022-10-02T09:35:25.623Z,8.30
2022-10-02T09:36:25.623Z,6.70
2022-10-02T09:37:25.658Z,14.50
2022-10-02T09:38:25.601Z,14.70
2022-10-02T09:39:25.589Z,14.10
2022-10-02T09:40:25.576Z,7.50
2022-10-02T09:41:25.558Z,11.80
2022-10-02T09:42:25.580Z,7.50
2022-10-02T09:43:25.546Z,4.40
2022-10-02T09:44:25.516Z,8.90
2022-10-02T09:45:25.525Z,7.20
2022-10-02T09:46:25.491Z,10.60
2022-10-02T09:47:25.508Z,9.20
2022-10-02T09:48:25.467Z,10.80
2022-10-02T09:49:25.462Z,6.40
2022-10-02T09:50:25.431Z,7.40
2022-10-02T09:51:25.510Z,10.80
2022-10-02T09:52:25.439Z,4.60
2022-10-02T09:53:25.398Z,4.80
2022-10-02T09:54:25.396Z,4.20
2022-10-02T09:55:25.386Z,9.10
2022-10-02T09:56:25.478Z,8.10
2022-10-02T09:57:25.380Z,12.90
2022-10-02T09:58:25.338Z,7.30
2022-10-02T09:59:25.334Z,5.80
2022-10-02T10:00:25.301Z,6.30
2022-10-02T10:01:25.350Z,15.40
2022-10-02T10:02:26.039Z,7.20
2022-10-02T10:03:25.272Z,10.70
2022-10-02T10:04:25.255Z,6.80
2022-10-02T10:05:26.057Z,6.00
2022-10-02T10:06:25.227Z,7.50
2022-10-02T10:07:28.500Z,6.80
2022-10-02T10:08:25.210Z,9.20
2022-10-02T10:09:25.181Z,9.50
2022-10-02T10:10:26.174Z,8.80
2022-10-02T10:11:26.501Z,9.00
2022-10-02T10:12:25.192Z,10.50
2022-10-02T10:13:25.170Z,9.50
2022-10-02T10:14:25.122Z,12.50
2022-10-02T10:15:25.115Z,4.90
2022-10-02T10:16:25.955Z,10.30
2022-10-02T10:17:25.107Z,8.80
2022-10-02T10:18:25.074Z,13.90
2022-10-02T10:19:25.065Z,3.20
2022-10-02T10:20:25.108Z,10.00
2022-10-02T10:21:34.490Z,6.20
2022-10-02T10:22:26.051Z,7.80
2022-10-02T10:23:25.002Z,10.00
2022-10-02T10:24:24.992Z,11.00
2022-10-02T10:25:24.973Z,3.40
2022-10-02T10:26:24.984Z,8.90
2022-10-02T10:27:24.982Z,17.90
2022-10-02T10:28:24.982Z,8.10
2022-10-02T10:29:24.923Z,8.20
2022-10-02T10:30:25.933Z,10.40
2022-10-02T10:31:25.111Z,7.10
2022-10-02T10:32:24.922Z,8.30
2022-10-02T10:33:24.883Z,3.90
2022-10-02T10:34:24.882Z,8.00
2022-10-02T10:35:24.848Z,8.00
2022-10-02T10:36:24.933Z,5.00
2022-10-02T10:37:24.851Z,6.60
2022-10-02T10:38:24.812Z,11.60
2022-10-02T10:39:24.794Z,10.20
2022-10-02T10:40:24.782Z,3.60
2022-10-02T10:41:24.784Z,6.20
2022-10-02T10:42:24.793Z,6.10
2022-10-02T10:43:24.758Z,11.60
2022-10-02T10:44:24.731Z,5.40
2022-10-02T10:45:24.767Z,5.70
2022-10-02T10:46:24.762Z,8.40
2022-10-02T10:47:24.741Z,11.50
2022-10-02T10:48:24.682Z,7.60
2022-10-02T10:49:24.683Z,7.70
2022-10-02T10:50:24.729Z,8.90
2022-10-02T10:51:24.643Z,6.80
2022-10-02T10:52:24.653Z,6.70
2022-10-02T10:53:24.621Z,14.10
2022-10-02T10:54:24.623Z,6.00
2022-10-02T10:55:24.593Z,7.60
2022-10-02T10:56:24.607Z,5.70
2022-10-02T10:57:24.603Z,6.70
2022-10-02T10:58:24.552Z,10.90
2022-10-02T10:59:25.529Z,9.00
2022-10-02T11:00:24.533Z,9.70
2022-10-02T11:01:24.571Z,7.40
2022-10-02T11:02:24.565Z,12.10
2022-10-02T11:03:24.507Z,8.30
2022-10-02T11:04:24.469Z,8.80
2022-10-02T11:05:24.472Z,5.50
2022-10-02T11:06:25.048Z,12.20
2022-10-02T11:07:24.465Z,6.20
2022-10-02T11:08:24.412Z,6.80
2022-10-02T11:09:24.414Z,8.90
2022-10-02T11:10:24.393Z,9.10
2022-10-02T11:11:24.399Z,12.00
2022-10-02T11:12:24.394Z,5.60
2022-10-02T11:13:24.361Z,13.00
2022-10-02T11:14:24.343Z,10.10
2022-10-02T11:15:24.326Z,5.60
2022-10-02T11:16:24.450Z,7.10
2022-10-02T11:17:24.369Z,8.50
2022-10-02T11:18:24.298Z,6.00
2022-10-02T11:19:24.298Z,6.00
2022-10-02T11:20:24.270Z,8.10
2022-10-02T11:21:24.255Z,6.80
2022-10-02T11:22:24.303Z,4.60
2022-10-02T11:23:24.236Z,7.40
2022-10-02T11:24:24.213Z,5.40
2022-10-02T11:25:24.194Z,9.50
2022-10-02T11:26:24.183Z,4.70
2022-10-02T11:27:24.214Z,8.00
2022-10-02T11:28:24.225Z,5.10
2022-10-02T11:29:24.146Z,5.70
2022-10-02T11:30:24.145Z,11.80
2022-10-02T11:31:24.250Z,3.60
2022-10-02T11:32:24.136Z,5.00
2022-10-02T11:33:24.105Z,6.60
2022-10-02T11:34:24.082Z,6.10
2022-10-02T11:35:24.085Z,4.20
2022-10-02T11:36:24.067Z,6.60
2022-10-02T11:37:24.083Z,12.50
2022-10-02T11:38:24.033Z,6.70
2022-10-02T11:39:24.025Z,4.40
2022-10-02T11:40:24.004Z,10.20
2022-10-02T11:41:24.090Z,7.00
2022-10-02T11:42:24.026Z,2.80
2022-10-02T11:43:23.965Z,6.00
2022-10-02T11:44:23.946Z,4.90
2022-10-02T11:45:23.948Z,6.40
2022-10-02T11:46:23.925Z,4.90
2022-10-02T11:47:23.945Z,5.50
2022-10-02T11:48:23.897Z,5.60
2022-10-02T11:49:23.893Z,6.10
2022-10-02T11:50:23.871Z,6.40
2022-10-02T11:51:23.876Z,6.00
2022-10-02T11:52:23.876Z,10.30
2022-10-02T11:53:23.836Z,5.20
2022-10-02T11:54:23.815Z,5.90
2022-10-02T11:55:23.817Z,5.40
2022-10-02T11:56:23.869Z,6.90
2022-10-02T11:57:23.816Z,5.50
2022-10-02T11:58:23.767Z,6.20
2022-10-02T11:59:23.772Z,9.70
2022-10-02T12:00:23.735Z,4.60
2022-10-02T12:01:23.746Z,7.00
2022-10-02T12:02:23.824Z,6.80
2022-10-02T12:03:23.799Z,4.10
2022-10-02T12:04:23.699Z,3.50
2022-10-02T12:05:23.678Z,6.20
2022-10-02T12:06:23.658Z,4.00
2022-10-02T12:07:27.906Z,6.50
2022-10-02T12:08:23.645Z,4.20
2022-10-02T12:09:23.628Z,5.20
2022-10-02T12:10:23.620Z,7.70
2022-10-02T12:11:23.598Z,3.40
2022-10-02T12:12:27.677Z,2.00
2022-10-02T12:13:23.597Z,5.30
2022-10-02T12:14:23.570Z,7.70
2022-10-02T12:15:23.559Z,5.90
2022-10-02T12:16:23.590Z,4.50
2022-10-02T12:17:23.536Z,4.00
2022-10-02T12:18:23.538Z,8.00
2022-10-02T12:19:23.497Z,5.10
2022-10-02T12:20:23.531Z,4.60
2022-10-02T12:21:23.511Z,6.20
2022-10-02T12:22:23.458Z,4.80
2022-10-02T12:23:23.488Z,7.60
2022-10-02T12:24:23.428Z,4.80
2022-10-02T12:25:23.428Z,3.90
2022-10-02T12:26:23.419Z,10.50
2022-10-02T12:27:23.418Z,7.40
2022-10-02T12:28:23.479Z,5.10
2022-10-02T12:29:23.387Z,9.20
2022-10-02T12:30:23.354Z,1.90
2022-10-02T12:31:23.404Z,3.80
2022-10-02T12:32:23.363Z,2.80
2022-10-02T12:33:23.319Z,4.90
2022-10-02T12:34:23.310Z,0.60
2022-10-02T12:35:23.309Z,5.00
2022-10-02T12:36:23.279Z,3.60
2022-10-02T12:37:23.991Z,2.80
2022-10-02T12:38:23.259Z,2.80
2022-10-02T12:39:23.250Z,1.50
2022-10-02T12:40:24.968Z,3.70
2022-10-02T12:41:23.220Z,5.50
2022-10-02T12:42:23.240Z,3.00
2022-10-02T12:43:23.236Z,9.50
2022-10-02T12:44:23.180Z,3.40
2022-10-02T12:45:23.291Z,5.80
2022-10-02T12:46:23.151Z,3.60
2022-10-02T12:47:23.181Z,3.40
2022-10-02T12:48:23.120Z,1.20
2022-10-02T12:49:23.124Z,7.00
2022-10-02T12:50:23.103Z,1.80
2022-10-02T12:51:23.104Z,3.40
2022-10-02T12:52:23.101Z,5.30
2022-10-02T12:53:23.069Z,10.20
2022-10-02T12:54:23.051Z,6.90
2022-10-02T12:55:23.811Z,6.30
2022-10-02T12:56:23.019Z,4.60
2022-10-02T12:57:23.041Z,7.60
2022-10-02T12:58:23.001Z,1.60
2022-10-02T12:59:22.992Z,4.00
2022-10-02T13:00:22.971Z,6.50
2022-10-02T13:01:23.046Z,5.60